Weather at Asmara International Airport

Public forecast

Using degrees Celsius for public forecast. Weather courtesy of forecast.io.

Closest aviation weather report (METAR) to Asmara International Airport

Report is more than 6 hours old.

Closest report is Jizan Regional Airport / King Abdullah bin Abdulaziz Airport, 233.0 nm (431.5 km) ENE.

2022/11/14 15:00 (retrieved 2 years ago)

OEGN 141500Z 24005KT 9999 FEW030 30/23 Q1012 NOSIG

Closest aviation forecast (TAF) to Asmara International Airport

Forecast is more than 12 hours old.

Closest forecast is Mekele Airport, 115.4 nm (213.7 km) SSE.

2023/02/22 18:20 (retrieved 1 year ago)

TAF HAMK 221530Z 2218/2324 09002KT 9999 CAVOK